Time;durP1;ratioP1;P1;durP2;ratioP2;P2;SDS_P1;SDS_P2;PMS_P1;PMS_P2;Temp;Humidity;BMP_temperature;BMP_pressure;BME280_temperature;BME280_humidity;BME280_pressure;Samples;Min_cycle;Max_cycle;Signal;HPM_P1;HPM_P2
2022/10/12 00:00:31;;;;;;;28.42;8.68;;;;;;;16.80;100.00;102370.16;5000002;28;20102;-50
2022/10/12 00:02:56;;;;;;;22.60;7.93;;;;;;;16.76;100.00;102363.50;5003441;28;20031;-53
2022/10/12 00:05:22;;;;;;;25.60;9.07;;;;;;;16.75;100.00;102359.94;5006146;28;20281;-50
2022/10/12 00:07:47;;;;;;;14.13;6.53;;;;;;;16.68;100.00;102358.22;5009243;28;20062;-52
2022/10/12 00:10:13;;;;;;;18.93;6.70;;;;;;;16.66;100.00;102369.25;5006413;28;20280;-47
2022/10/12 00:12:38;;;;;;;21.70;8.13;;;;;;;16.70;100.00;102367.81;5003116;28;20030;-47
2022/10/12 00:15:04;;;;;;;15.10;8.03;;;;;;;16.63;100.00;102373.16;5005128;28;20035;-49
2022/10/12 00:17:30;;;;;;;21.13;6.95;;;;;;;16.60;100.00;102367.31;5011714;28;20034;-51
2022/10/12 00:19:55;;;;;;;19.63;7.90;;;;;;;16.69;100.00;102368.84;4999039;28;20137;-52
2022/10/12 00:22:21;;;;;;;16.30;8.00;;;;;;;16.74;100.00;102374.47;5010530;28;20280;-51
2022/10/12 00:24:46;;;;;;;23.20;8.00;;;;;;;16.76;100.00;102374.28;5011217;28;20031;-50
2022/10/12 00:27:12;;;;;;;18.83;7.97;;;;;;;16.72;100.00;102371.16;4997998;28;20039;-52
2022/10/12 00:29:37;;;;;;;15.13;6.73;;;;;;;16.73;100.00;102377.41;5016987;28;20058;-52
2022/10/12 00:32:03;;;;;;;20.33;6.82;;;;;;;16.72;100.00;102376.56;5003757;28;20042;-49
2022/10/12 00:34:28;;;;;;;18.63;7.68;;;;;;;16.67;100.00;102376.31;5001770;28;20050;-48
2022/10/12 00:36:55;;;;;;;17.27;7.20;;;;;;;16.67;100.00;102376.31;4995473;28;20035;-50
2022/10/12 00:39:20;;;;;;;20.08;6.47;;;;;;;16.70;100.00;102372.38;5002063;28;20287;-52
2022/10/12 00:41:46;;;;;;;14.20;7.80;;;;;;;16.73;100.00;102366.59;5005320;28;20027;-52
2022/10/12 00:44:43;;;;;;;18.67;7.80;;;;;;;16.69;100.00;102366.16;5007456;28;20056;-52
2022/10/12 00:47:35;;;;;;;24.10;8.13;;;;;;;16.76;100.00;102366.19;5003669;28;20286;-54
2022/10/12 00:50:12;;;;;;;22.27;7.70;;;;;;;16.76;100.00;102367.00;5007545;28;20051;-51
2022/10/12 00:52:44;;;;;;;24.70;8.55;;;;;;;16.72;100.00;102368.44;5003343;28;20038;-53
2022/10/12 00:55:13;;;;;;;25.33;8.82;;;;;;;16.70;100.00;102367.81;4998133;28;20038;-53
2022/10/12 00:57:38;;;;;;;22.88;7.70;;;;;;;16.71;100.00;102364.06;5014651;28;20098;-50
2022/10/12 01:00:08;;;;;;;16.35;7.43;;;;;;;16.72;100.00;102365.75;5002740;28;20057;-50
2022/10/12 01:02:36;;;;;;;19.58;7.68;;;;;;;16.72;100.00;102363.03;5017572;28;20024;-51
2022/10/12 01:05:03;;;;;;;23.25;7.68;;;;;;;16.75;100.00;102359.13;5003562;28;20034;-53
2022/10/12 01:07:29;;;;;;;24.58;7.30;;;;;;;16.77;100.00;102365.16;5004324;28;20047;-50
2022/10/12 01:09:54;;;;;;;22.98;8.43;;;;;;;16.74;100.00;102350.16;5008209;28;20034;-51
2022/10/12 01:12:21;;;;;;;17.42;8.48;;;;;;;16.70;100.00;102346.19;5005758;28;20102;-49
2022/10/12 01:14:46;;;;;;;18.73;7.45;;;;;;;16.72;100.00;102348.69;5012584;28;20037;-50
2022/10/12 01:17:25;;;;;;;25.25;7.95;;;;;;;16.67;100.00;102359.25;5006957;28;20091;-51
2022/10/12 01:19:57;;;;;;;26.40;8.60;;;;;;;16.67;100.00;102357.41;5004919;28;20030;-49
2022/10/12 01:22:22;;;;;;;21.00;7.93;;;;;;;16.64;100.00;102352.41;5006274;28;20097;-53
2022/10/12 01:25:38;;;;;;;31.40;9.00;;;;;;;16.65;100.00;102354.06;5010302;28;20030;-52
2022/10/12 01:28:33;;;;;;;18.88;7.03;;;;;;;16.61;100.00;102342.00;5000261;28;20043;-49
2022/10/12 01:31:11;;;;;;;19.65;7.95;;;;;;;16.60;100.00;102340.31;5005983;28;20097;-50
2022/10/12 01:33:45;;;;;;;21.48;8.15;;;;;;;16.55;100.00;102332.84;5003588;28;20039;-52
2022/10/12 01:36:17;;;;;;;16.00;7.45;;;;;;;16.49;100.00;102337.16;4998803;28;20094;-51
2022/10/12 01:39:17;;;;;;;16.67;6.75;;;;;;;16.43;100.00;102334.41;5014505;28;20058;-49
2022/10/12 01:41:46;;;;;;;17.55;6.63;;;;;;;16.47;100.00;102328.41;5002745;28;20058;-51
2022/10/12 01:44:22;;;;;;;20.38;6.68;;;;;;;16.48;100.00;102331.94;5003303;28;20050;-50
2022/10/12 01:46:49;;;;;;;18.58;6.60;;;;;;;16.45;100.00;102326.94;5004648;28;20034;-52
2022/10/12 01:49:17;;;;;;;24.00;7.72;;;;;;;16.44;100.00;102323.41;5005570;28;20090;-47
2022/10/12 01:51:50;;;;;;;17.75;6.85;;;;;;;16.52;100.00;102327.84;5004998;28;20030;-50
2022/10/12 01:54:51;;;;;;;17.17;6.88;;;;;;;16.52;100.00;102325.13;4997337;28;20094;-53
2022/10/12 01:57:45;;;;;;;20.67;7.18;;;;;;;16.49;100.00;102322.81;5013500;28;20033;-49
2022/10/12 02:00:14;;;;;;;19.83;6.70;;;;;;;16.50;100.00;102321.78;4993972;28;20049;-49
2022/10/12 02:02:58;;;;;;;19.70;6.50;;;;;;;16.51;100.00;102322.63;4999814;28;20031;-49
2022/10/12 02:05:36;;;;;;;17.20;7.65;;;;;;;16.51;100.00;102318.06;5001432;28;20110;-50
2022/10/12 02:08:18;;;;;;;19.35;6.20;;;;;;;16.52;100.00;102314.34;5003519;28;20038;-50
2022/10/12 02:10:58;;;;;;;15.68;7.05;;;;;;;16.55;100.00;102316.63;5001807;28;20035;-52
2022/10/12 02:13:29;;;;;;;20.23;7.40;;;;;;;16.48;100.00;102313.03;4998808;28;20054;-51
2022/10/12 02:15:57;;;;;;;23.38;7.50;;;;;;;16.51;100.00;102309.97;5009440;28;20044;-51
2022/10/12 02:18:23;;;;;;;23.77;8.15;;;;;;;16.53;100.00;102309.75;4997101;28;20034;-53
2022/10/12 02:20:53;;;;;;;22.73;7.40;;;;;;;16.56;100.00;102314.75;5002910;28;20035;-54
2022/10/12 02:23:21;;;;;;;18.60;6.38;;;;;;;16.50;100.00;102308.28;5004635;28;20287;-52
2022/10/12 02:25:48;;;;;;;32.25;9.07;;;;;;;16.43;100.00;102313.66;4996636;28;20440;-50
2022/10/12 02:28:17;;;;;;;21.73;7.40;;;;;;;16.46;100.00;102301.59;4995817;28;20058;-49
2022/10/12 02:30:50;;;;;;;26.98;6.93;;;;;;;16.42;100.00;102301.19;4998722;28;20152;-52
2022/10/12 02:33:27;;;;;;;18.58;7.60;;;;;;;16.41;100.00;102301.38;5002146;28;20040;-52
2022/10/12 02:36:04;;;;;;;23.83;7.20;;;;;;;16.31;100.00;102299.88;5005198;28;20058;-50
2022/10/12 02:38:56;;;;;;;18.70;7.15;;;;;;;16.36;100.00;102301.97;5003077;28;20031;-51
2022/10/12 02:41:29;;;;;;;27.83;6.95;;;;;;;16.34;100.00;102299.47;4986678;28;20042;-51
2022/10/12 02:44:01;;;;;;;21.15;7.72;;;;;;;16.32;100.00;102295.28;5005941;28;20043;-51
2022/10/12 02:46:29;;;;;;;21.70;7.15;;;;;;;16.33;100.00;102297.81;4994656;28;20030;-55
2022/10/12 02:48:57;;;;;;;20.17;7.18;;;;;;;16.35;100.00;102289.50;5008049;28;20063;-50
2022/10/12 02:51:25;;;;;;;19.20;6.00;;;;;;;16.37;100.00;102298.22;4998645;28;20038;-53
2022/10/12 02:53:51;;;;;;;14.75;6.13;;;;;;;16.37;100.00;102292.81;5013994;28;20042;-50
2022/10/12 02:56:16;;;;;;;16.70;5.82;;;;;;;16.29;100.00;102285.75;5001988;28;20093;-50
2022/10/12 02:58:45;;;;;;;20.63;6.28;;;;;;;16.31;100.00;102283.69;5019892;28;20038;-52
2022/10/12 03:01:11;;;;;;;12.85;5.75;;;;;;;16.24;100.00;102276.56;5009140;28;20022;-51
2022/10/12 03:03:37;;;;;;;15.80;6.35;;;;;;;16.16;100.00;102270.31;5002509;28;20069;-50
2022/10/12 03:06:03;;;;;;;19.35;5.80;;;;;;;16.15;100.00;102273.19;5011009;28;20035;-53
2022/10/12 03:08:29;;;;;;;15.55;5.50;;;;;;;16.02;100.00;102272.06;5009073;28;20042;-51
2022/10/12 03:11:01;;;;;;;27.67;6.85;;;;;;;15.95;100.00;102270.38;5014020;28;20059;-52
2022/10/12 03:13:26;;;;;;;21.77;5.68;;;;;;;15.99;100.00;102275.16;5011139;28;20058;-54
2022/10/12 03:15:52;;;;;;;13.03;5.30;;;;;;;15.88;100.00;102268.44;5009085;28;20031;-49
2022/10/12 03:18:17;;;;;;;14.27;6.00;;;;;;;15.85;100.00;102271.50;5010636;28;20284;-52
2022/10/12 03:20:47;;;;;;;22.73;7.67;;;;;;;15.87;100.00;102276.69;5008829;28;20121;-49
2022/10/12 03:23:13;;;;;;;18.60;6.65;;;;;;;15.73;100.00;102268.50;5002829;28;20264;-50
2022/10/12 03:25:38;;;;;;;17.43;5.93;;;;;;;15.77;100.00;102266.25;5001714;28;20053;-51
2022/10/12 03:28:05;;;;;;;16.25;6.55;;;;;;;15.71;100.00;102270.56;5012448;28;20041;-50
2022/10/12 03:30:31;;;;;;;19.08;6.10;;;;;;;15.72;100.00;102266.00;5004051;28;20035;-51
2022/10/12 03:32:56;;;;;;;14.87;5.83;;;;;;;15.73;100.00;102267.69;5012432;28;20039;-48
2022/10/12 03:35:22;;;;;;;19.25;5.88;;;;;;;15.74;100.00;102256.66;5014343;28;20035;-50
2022/10/12 03:37:47;;;;;;;33.33;7.53;;;;;;;15.81;100.00;102264.00;5005551;28;20065;-50
2022/10/12 03:40:13;;;;;;;20.23;6.20;;;;;;;15.75;100.00;102263.72;5021645;28;20043;-51
2022/10/12 03:42:38;;;;;;;20.83;5.72;;;;;;;15.72;100.00;102266.00;5006459;28;20027;-54
2022/10/12 03:45:04;;;;;;;17.07;5.87;;;;;;;15.71;100.00;102258.94;5003658;28;20082;-55
2022/10/12 03:47:29;;;;;;;13.07;5.82;;;;;;;15.65;100.00;102265.94;5007836;28;20272;-54
2022/10/12 03:49:55;;;;;;;17.87;5.80;;;;;;;15.61;100.00;102267.38;5007732;28;20043;-53
2022/10/12 03:52:20;;;;;;;17.88;6.10;;;;;;;15.57;100.00;102261.53;5010825;28;20040;-50
2022/10/12 03:54:46;;;;;;;22.30;6.57;;;;;;;15.51;100.00;102265.00;5005733;28;20068;-52
2022/10/12 03:57:11;;;;;;;15.87;5.53;;;;;;;15.46;100.00;102262.06;5009818;28;20060;-53
2022/10/12 03:59:37;;;;;;;17.52;6.18;;;;;;;15.43;100.00;102257.88;5009048;28;20264;-54
2022/10/12 04:02:02;;;;;;;18.47;7.63;;;;;;;15.40;100.00;102257.41;5008044;28;20031;-53
2022/10/12 04:04:28;;;;;;;15.50;7.77;;;;;;;15.32;100.00;102252.97;5009137;28;20067;-52
2022/10/12 04:06:53;;;;;;;24.07;7.67;;;;;;;15.30;100.00;102247.81;5011064;28;20038;-52
2022/10/12 04:09:19;;;;;;;16.20;6.05;;;;;;;15.28;100.00;102247.16;5009664;28;20030;-53
2022/10/12 04:11:44;;;;;;;21.97;6.63;;;;;;;15.36;100.00;102253.44;5003842;28;20045;-53
2022/10/12 04:14:10;;;;;;;17.80;7.00;;;;;;;15.09;100.00;102256.69;5012418;28;20054;-52
2022/10/12 04:16:36;;;;;;;20.97;7.87;;;;;;;15.29;100.00;102254.22;5003753;28;20315;-52
2022/10/12 04:19:02;;;;;;;12.77;6.68;;;;;;;15.30;100.00;102245.09;5011364;28;20062;-49
2022/10/12 04:21:29;;;;;;;21.77;7.43;;;;;;;15.14;100.00;102254.28;5013082;28;20038;-50
2022/10/12 04:23:55;;;;;;;17.95;7.78;;;;;;;15.09;100.00;102247.78;5005230;28;20093;-47
2022/10/12 04:26:20;;;;;;;17.87;7.67;;;;;;;15.18;100.00;102246.63;5005318;28;20072;-48
2022/10/12 04:28:46;;;;;;;17.30;7.57;;;;;;;15.14;100.00;102256.97;5003731;28;20056;-52
2022/10/12 04:31:11;;;;;;;15.07;6.78;;;;;;;15.18;100.00;102250.19;5007218;28;20043;-51
2022/10/12 04:33:37;;;;;;;20.77;7.18;;;;;;;15.18;100.00;102246.63;5008490;28;20036;-47
2022/10/12 04:36:02;;;;;;;19.27;8.63;;;;;;;15.14;100.00;102254.28;5009600;28;20035;-50
2022/10/12 04:38:28;;;;;;;14.82;7.45;;;;;;;15.13;100.00;102252.63;5002458;28;20042;-51
2022/10/12 04:40:53;;;;;;;19.97;7.57;;;;;;;15.13;100.00;102254.47;5003929;28;20038;-52
2022/10/12 04:43:19;;;;;;;12.90;7.07;;;;;;;15.23;100.00;102255.00;4997336;28;20281;-47
2022/10/12 04:45:53;;;;;;;19.57;6.40;;;;;;;15.11;100.00;102251.13;5016331;28;20054;-51
2022/10/12 04:48:18;;;;;;;22.95;8.57;;;;;;;15.11;100.00;102253.81;5006573;28;20031;-52
2022/10/12 04:50:44;;;;;;;13.07;6.50;;;;;;;15.09;100.00;102248.59;5007442;28;20045;-53
2022/10/12 04:53:09;;;;;;;18.00;8.10;;;;;;;15.08;100.00;102246.94;4998819;28;20035;-50
2022/10/12 04:55:36;;;;;;;15.85;7.00;;;;;;;15.05;100.00;102248.19;5012610;28;20041;-51
2022/10/12 04:58:02;;;;;;;17.40;7.50;;;;;;;14.94;100.00;102253.22;5006632;28;20042;-51
2022/10/12 05:00:27;;;;;;;17.43;7.73;;;;;;;14.93;100.00;102252.38;5012055;28;20037;-50
2022/10/12 05:02:53;;;;;;;14.48;7.80;;;;;;;14.98;100.00;102249.94;5007581;28;20026;-50
2022/10/12 05:05:19;;;;;;;13.90;7.50;;;;;;;14.89;100.00;102241.16;5000573;28;20040;-48
2022/10/12 05:07:44;;;;;;;16.77;7.07;;;;;;;15.02;100.00;102247.72;5014137;28;20088;-49
2022/10/12 05:10:10;;;;;;;15.47;7.33;;;;;;;15.01;100.00;102244.19;5003400;28;20280;-52
2022/10/12 05:12:35;;;;;;;16.57;7.07;;;;;;;14.82;100.00;102240.25;5009359;28;20086;-48
2022/10/12 05:15:00;;;;;;;16.17;6.10;;;;;;;14.78;100.00;102241.66;5005377;28;20051;-54
2022/10/12 05:17:26;;;;;;;15.95;7.20;;;;;;;14.93;100.00;102247.00;5008535;28;20046;-51
2022/10/12 05:19:52;;;;;;;13.80;6.63;;;;;;;14.85;100.00;102239.03;5004013;28;20065;-48
2022/10/12 05:22:17;;;;;;;17.70;6.53;;;;;;;14.84;100.00;102246.28;5006316;28;20265;-51
2022/10/12 05:24:42;;;;;;;19.00;6.63;;;;;;;14.82;100.00;102231.34;5004513;28;20049;-49
2022/10/12 05:27:08;;;;;;;15.50;7.57;;;;;;;14.79;100.00;102229.84;5004421;28;20163;-50
2022/10/12 05:29:34;;;;;;;18.60;7.20;;;;;;;14.92;100.00;102231.84;5007562;28;20037;-51
2022/10/12 05:31:59;;;;;;;25.67;6.70;;;;;;;14.90;100.00;102233.91;5003847;28;20046;-52
2022/10/12 05:34:25;;;;;;;15.75;6.80;;;;;;;14.87;100.00;102227.03;4997610;28;20098;-50
2022/10/12 05:36:50;;;;;;;18.63;8.73;;;;;;;14.85;100.00;102229.09;5007234;28;20038;-50
2022/10/12 05:39:16;;;;;;;25.58;9.80;;;;;;;14.87;100.00;102234.28;4998471;28;20034;-50
2022/10/12 05:41:42;;;;;;;19.93;8.10;;;;;;;14.87;100.00;102240.50;5011478;28;20064;-53
2022/10/12 05:44:07;;;;;;;20.03;7.80;;;;;;;14.85;100.00;102230.97;5007003;28;20031;-49
2022/10/12 05:46:33;;;;;;;16.73;7.57;;;;;;;14.86;100.00;102236.13;5000872;28;20336;-46
2022/10/12 05:48:58;;;;;;;18.67;7.87;;;;;;;14.81;100.00;102241.25;5001683;28;20046;-50
2022/10/12 05:51:24;;;;;;;19.85;7.57;;;;;;;14.82;100.00;102237.53;5004458;28;20060;-47
2022/10/12 05:53:50;;;;;;;18.60;6.13;;;;;;;14.77;100.00;102235.44;5011553;28;20051;-51
2022/10/12 05:56:15;;;;;;;15.40;7.13;;;;;;;14.84;100.00;102240.06;5003245;28;20035;-49
2022/10/12 05:58:41;;;;;;;15.70;6.53;;;;;;;14.82;100.00;102242.13;5007229;28;20276;-51
2022/10/12 06:01:11;;;;;;;17.90;6.60;;;;;;;14.80;100.00;102233.38;5002442;28;20035;-54
2022/10/12 06:03:37;;;;;;;18.65;7.95;;;;;;;14.80;100.00;102238.78;5004392;28;20355;-51
2022/10/12 06:06:05;;;;;;;18.05;7.45;;;;;;;14.80;100.00;102234.22;5012930;28;20036;-49
2022/10/12 06:08:32;;;;;;;24.10;6.70;;;;;;;14.79;100.00;102239.81;5009996;28;20034;-48
2022/10/12 06:10:58;;;;;;;18.67;6.68;;;;;;;14.88;100.00;102241.34;5005956;28;20043;-52
2022/10/12 06:13:24;;;;;;;27.00;7.50;;;;;;;14.91;100.00;102238.28;4998682;28;20042;-52
2022/10/12 06:15:49;;;;;;;18.98;7.05;;;;;;;14.94;100.00;102237.06;5010149;28;20060;-53
2022/10/12 06:18:16;;;;;;;19.27;6.67;;;;;;;15.03;100.00;102235.91;5006271;28;20085;-52
2022/10/12 06:20:47;;;;;;;22.98;7.90;;;;;;;15.10;100.00;102228.72;5012265;28;20037;-53
2022/10/12 06:23:13;;;;;;;21.50;8.05;;;;;;;15.17;100.00;102228.78;5003524;28;20093;-53
2022/10/12 06:25:39;;;;;;;25.45;6.93;;;;;;;15.04;100.00;102222.25;5001321;28;20061;-54
2022/10/12 06:28:05;;;;;;;18.92;7.22;;;;;;;15.14;100.00;102223.78;5011760;28;20030;-55
2022/10/12 06:30:30;;;;;;;25.70;7.20;;;;;;;15.07;100.00;102218.34;5001606;28;20062;-53
2022/10/12 06:32:55;;;;;;;19.40;7.33;;;;;;;15.08;100.00;102222.69;5003903;28;20051;-54
2022/10/12 06:35:21;;;;;;;27.57;6.87;;;;;;;15.30;100.00;102223.53;5016983;28;20101;-53
2022/10/12 06:37:50;;;;;;;15.68;6.95;;;;;;;15.17;100.00;102215.31;5004933;28;20065;-52
2022/10/12 06:40:19;;;;;;;19.92;7.13;;;;;;;15.28;100.00;102220.22;4998995;28;20045;-53
2022/10/12 06:42:45;;;;;;;24.55;6.63;;;;;;;15.27;100.00;102217.69;5002197;28;20045;-52
2022/10/12 06:45:10;;;;;;;16.27;6.30;;;;;;;15.30;100.00;102220.00;5003191;28;20073;-51
2022/10/12 06:47:36;;;;;;;23.93;7.13;;;;;;;15.23;100.00;102225.34;5010478;28;20042;-51
2022/10/12 06:50:01;;;;;;;21.17;6.53;;;;;;;14.97;100.00;102232.13;5003092;28;20070;-52
2022/10/12 06:52:27;;;;;;;18.33;6.30;;;;;;;15.08;100.00;102228.09;5004423;28;20098;-49
2022/10/12 06:54:52;;;;;;;16.17;7.30;;;;;;;15.15;100.00;102231.69;4996249;28;20280;-52
2022/10/12 06:57:17;;;;;;;18.43;6.77;;;;;;;15.10;100.00;102233.28;5011879;28;20097;-51
2022/10/12 06:59:45;;;;;;;19.92;7.90;;;;;;;15.03;100.00;102227.81;4999426;28;20061;-53
2022/10/12 07:02:10;;;;;;;20.40;7.57;;;;;;;14.86;100.00;102225.38;5012877;28;20156;-48
2022/10/12 07:04:36;;;;;;;16.40;5.57;;;;;;;14.90;100.00;102225.81;5006367;28;20031;-51
2022/10/12 07:07:02;;;;;;;25.93;6.50;;;;;;;14.89;100.00;102229.56;5000051;28;20065;-51
2022/10/12 07:09:28;;;;;;;22.05;7.43;;;;;;;14.97;100.00;102221.34;5016469;28;20271;-46
2022/10/12 07:11:53;;;;;;;20.77;6.80;;;;;;;14.92;100.00;102221.09;4993076;28;20042;-49
2022/10/12 07:14:19;;;;;;;19.10;6.93;;;;;;;14.92;100.00;102210.31;5004492;28;20272;-49
2022/10/12 07:16:44;;;;;;;15.80;6.97;;;;;;;14.78;100.00;102214.72;5000817;28;20058;-48
2022/10/12 07:19:10;;;;;;;14.93;7.07;;;;;;;14.79;100.00;102216.38;5001727;28;20280;-49
2022/10/12 07:21:35;;;;;;;17.73;6.60;;;;;;;14.77;100.00;102221.97;5000964;28;20035;-50
2022/10/12 07:24:01;;;;;;;14.05;6.65;;;;;;;14.74;100.00;102225.03;5003913;28;20085;-48
2022/10/12 07:26:26;;;;;;;14.87;6.03;;;;;;;14.73;100.00;102217.97;5008216;28;20036;-50
2022/10/12 07:28:52;;;;;;;15.77;6.35;;;;;;;14.81;100.00;102222.41;5004918;28;20046;-52
2022/10/12 07:31:17;;;;;;;15.87;5.70;;;;;;;14.85;100.00;102217.50;5005861;28;20083;-51
2022/10/12 07:33:42;;;;;;;20.90;6.80;;;;;;;14.91;100.00;102214.03;5003120;28;20034;-53
2022/10/12 07:36:09;;;;;;;15.38;6.40;;;;;;;14.86;100.00;102211.09;5000594;28;20031;-51
2022/10/12 07:38:34;;;;;;;16.83;6.68;;;;;;;15.00;100.00;102223.69;5005891;28;20062;-50
2022/10/12 07:41:01;;;;;;;17.37;6.33;;;;;;;15.21;100.00;102219.28;4997012;28;20038;-50
2022/10/12 07:43:28;;;;;;;22.33;7.22;;;;;;;15.26;100.00;102219.56;5009161;28;20026;-50
2022/10/12 07:45:53;;;;;;;17.63;7.65;;;;;;;15.36;100.00;102227.34;5004931;28;20129;-52
2022/10/12 07:48:20;;;;;;;19.95;7.45;;;;;;;15.45;100.00;102236.09;5000605;28;20057;-53
2022/10/12 07:50:47;;;;;;;21.88;7.75;;;;;;;15.53;100.00;102230.59;5011505;28;20035;-51
2022/10/12 07:53:12;;;;;;;23.48;8.10;;;;;;;15.57;100.00;102233.72;5003208;28;20054;-51
2022/10/12 07:55:38;;;;;;;16.17;8.00;;;;;;;15.50;100.00;102230.97;5020460;28;20109;-51
2022/10/12 07:58:04;;;;;;;21.50;7.73;;;;;;;15.62;100.00;102231.28;5006527;28;20046;-51
2022/10/12 08:00:31;;;;;;;20.60;7.68;;;;;;;15.39;100.00;102234.19;5005006;28;20271;-51
2022/10/12 08:02:57;;;;;;;15.73;7.28;;;;;;;15.32;100.00;102240.34;5004215;28;20026;-55
2022/10/12 08:05:22;;;;;;;20.52;7.55;;;;;;;15.62;100.00;102236.69;5005749;28;20065;-50
2022/10/12 08:07:50;;;;;;;12.68;6.75;;;;;;;15.95;100.00;102238.00;5011087;28;20034;-50
2022/10/12 08:10:16;;;;;;;16.10;7.45;;;;;;;15.65;100.00;102238.97;5006834;28;20038;-53
2022/10/12 08:12:44;;;;;;;19.10;7.32;;;;;;;15.94;100.00;102237.13;5006690;28;20046;-52
2022/10/12 08:15:11;;;;;;;20.93;8.37;;;;;;;16.03;100.00;102240.53;4999014;28;20046;-49
2022/10/12 08:17:37;;;;;;;14.13;7.70;;;;;;;15.88;100.00;102241.44;5010067;28;20264;-51
2022/10/12 08:20:04;;;;;;;16.25;7.13;;;;;;;16.17;100.00;102247.69;5002111;28;20276;-52
2022/10/12 08:22:30;;;;;;;;;;;;;;;16.20;100.00;102249.13;5012593;28;20050;-52
2022/10/12 08:24:56;;;;;;;14.47;7.70;;;;;;;16.62;100.00;102257.25;5007156;28;19914;-52
2022/10/12 08:27:21;;;;;;;15.30;7.10;;;;;;;16.77;100.00;102252.50;5005899;28;20065;-49
2022/10/12 08:29:47;;;;;;;15.73;7.07;;;;;;;17.15;100.00;102239.56;5015005;28;20031;-48
2022/10/12 08:32:12;;;;;;;17.43;7.67;;;;;;;16.92;100.00;102240.72;5007407;28;20133;-52
2022/10/12 08:34:38;;;;;;;26.37;9.13;;;;;;;17.65;100.00;102233.78;5000656;28;20281;-52
2022/10/12 08:37:03;;;;;;;20.65;8.95;;;;;;;18.44;100.00;102241.13;5022379;28;20040;-50
2022/10/12 08:39:29;;;;;;;17.42;7.03;;;;;;;19.35;100.00;102247.28;5005726;28;20069;-52
2022/10/12 08:42:06;;;;;;;17.33;9.13;;;;;;;20.22;100.00;102244.03;5003598;28;20035;-54
2022/10/12 08:44:46;;;;;;;17.67;7.13;;;;;;;20.75;99.12;102256.94;5010580;28;20043;-53
2022/10/12 08:47:14;;;;;;;22.30;8.47;;;;;;;21.01;96.45;102254.97;5005537;28;20281;-54
2022/10/12 08:49:43;;;;;;;26.37;6.83;;;;;;;21.26;91.85;102237.66;5001115;28;20279;-52
2022/10/12 08:52:25;;;;;;;28.63;8.33;;;;;;;21.81;88.65;102243.06;5014840;28;20285;-54
2022/10/12 08:54:52;;;;;;;15.27;6.97;;;;;;;21.98;86.70;102237.72;5003067;28;20063;-53
2022/10/12 08:57:19;;;;;;;18.80;6.97;;;;;;;22.12;85.52;102241.81;5015508;28;20029;-49
2022/10/12 08:59:45;;;;;;;29.42;8.70;;;;;;;22.91;80.25;102245.03;5005785;28;20030;-49
2022/10/12 09:03:05;;;;;;;23.77;7.60;;;;;;;22.29;83.68;102239.19;5005859;28;20098;-52
2022/10/12 09:05:45;;;;;;;20.20;7.03;;;;;;;23.03;79.22;102253.97;5018690;28;20046;-55
2022/10/12 09:08:26;;;;;;;17.10;6.83;;;;;;;23.73;75.25;102248.31;5000175;28;20115;-54
2022/10/12 09:11:07;;;;;;;14.17;5.90;;;;;;;24.60;69.32;102269.72;5011733;28;20034;-56
2022/10/12 09:13:33;;;;;;;18.53;6.57;;;;;;;25.35;64.80;102271.00;5001765;28;20030;-54
2022/10/12 09:16:03;;;;;;;19.05;6.57;;;;;;;26.12;60.75;102270.72;5009911;28;20035;-51
2022/10/12 09:18:41;;;;;;;17.43;6.03;;;;;;;26.17;60.47;102273.50;5003630;28;20035;-57
2022/10/12 09:21:12;;;;;;;11.97;5.63;;;;;;;26.99;56.32;102272.13;5000213;28;20063;-51
2022/10/12 09:23:40;;;;;;;13.07;5.60;;;;;;;27.26;54.03;102273.78;5009528;28;20049;-55
2022/10/12 09:26:17;;;;;;;15.60;5.53;;;;;;;27.58;52.29;102278.19;5006625;28;20075;-53
2022/10/12 09:28:55;;;;;;;16.23;5.97;;;;;;;27.95;50.34;102280.88;5005366;28;20046;-57
2022/10/12 09:31:36;;;;;;;15.23;5.83;;;;;;;28.32;48.41;102282.41;5014147;28;20028;-54
2022/10/12 09:34:05;;;;;;;15.80;5.77;;;;;;;28.52;47.78;102272.41;5006537;28;20051;-56
2022/10/12 09:36:35;;;;;;;18.70;5.57;;;;;;;29.16;46.28;102280.81;5008939;28;20046;-55
2022/10/12 09:39:11;;;;;;;18.63;5.50;;;;;;;29.77;44.17;102276.69;5003570;28;20046;-52
2022/10/12 09:41:42;;;;;;;14.82;4.97;;;;;;;29.88;43.31;102271.88;5002423;28;20045;-53
2022/10/12 09:44:18;;;;;;;18.48;5.88;;;;;;;29.94;42.96;102266.31;5001097;28;20052;-55
2022/10/12 09:46:50;;;;;;;16.48;5.53;;;;;;;30.41;42.48;102263.84;5005465;28;20049;-55
2022/10/12 09:49:16;;;;;;;10.30;5.20;;;;;;;30.66;41.18;102261.84;4997070;28;20072;-50
2022/10/12 09:51:42;;;;;;;12.98;5.00;;;;;;;29.99;41.74;102271.78;5005529;28;20058;-53
2022/10/12 09:54:16;;;;;;;13.30;5.03;;;;;;;29.20;43.22;102270.88;5008479;28;20065;-55
2022/10/12 09:56:48;;;;;;;16.25;5.10;;;;;;;28.71;44.38;102269.81;5008078;28;20125;-52
2022/10/12 09:59:38;;;;;;;16.63;5.63;;;;;;;27.73;45.62;102263.59;5012131;28;20055;-54
2022/10/12 10:02:10;;;;;;;14.10;5.70;;;;;;;26.84;48.16;102258.34;5000455;28;20031;-54
2022/10/12 10:04:37;;;;;;;14.37;6.03;;;;;;;27.70;47.42;102266.09;4995719;28;20572;-54
2022/10/12 10:07:15;;;;;;;18.27;6.27;;;;;;;28.45;45.42;102261.69;5001924;28;20061;-51
2022/10/12 10:09:41;;;;;;;12.83;5.90;;;;;;;28.46;45.62;102255.09;5008541;28;20096;-54
2022/10/12 10:12:12;;;;;;;;;;;;;;;28.60;46.20;102247.03;5003978;28;20034;-54
2022/10/12 10:14:42;;;;;;;17.97;6.73;;;;;;;29.69;43.52;102236.00;5003090;28;19985;-55
2022/10/12 10:17:12;;;;;;;22.80;6.22;;;;;;;30.30;42.12;102235.56;4996683;28;20023;-54
2022/10/12 10:19:38;;;;;;;14.75;6.28;;;;;;;30.70;40.84;102238.88;5008679;28;20026;-54
2022/10/12 10:22:05;;;;;;;15.18;6.15;;;;;;;31.23;40.00;102239.69;4999526;28;20137;-53
2022/10/12 10:24:32;;;;;;;20.05;6.15;;;;;;;31.72;38.89;102239.34;5013894;28;20042;-55
2022/10/12 10:27:03;;;;;;;13.15;5.65;;;;;;;31.71;38.24;102248.75;5004846;28;20030;-54
2022/10/12 10:29:29;;;;;;;14.90;5.13;;;;;;;31.76;36.55;102251.41;5005289;28;20102;-53
2022/10/12 10:32:22;;;;;;;16.27;5.68;;;;;;;31.62;36.74;102254.19;5002327;28;20063;-55
2022/10/12 10:35:00;;;;;;;18.15;5.68;;;;;;;31.64;36.48;102256.66;4998358;28;20030;-52
2022/10/12 10:37:26;;;;;;;11.85;4.93;;;;;;;30.98;36.89;102254.72;5006791;28;20042;-56
2022/10/12 10:39:55;;;;;;;17.23;5.18;;;;;;;31.35;35.94;102252.19;5005233;28;20109;-53
2022/10/12 10:42:27;;;;;;;16.52;5.00;;;;;;;30.89;36.91;102252.66;5013761;28;20035;-54
2022/10/12 10:45:08;;;;;;;14.50;5.93;;;;;;;31.50;36.53;102254.69;4996569;28;20039;-52
2022/10/12 10:47:42;;;;;;;16.25;6.18;;;;;;;32.13;35.72;102259.81;5001696;28;20049;-53
2022/10/12 10:50:24;;;;;;;12.93;5.35;;;;;;;32.72;34.01;102257.13;4992798;28;20106;-53
2022/10/12 10:52:59;;;;;;;15.80;5.15;;;;;;;32.40;34.92;102259.00;5007066;28;20050;-55
2022/10/12 10:56:13;;;;;;;12.10;4.80;;;;;;;32.93;32.97;102253.91;5002389;28;20042;-55
2022/10/12 10:58:50;;;;;;;14.32;5.82;;;;;;;33.16;33.24;102246.41;4996491;28;20050;-52
2022/10/12 11:01:37;;;;;;;13.98;6.28;;;;;;;33.11;32.86;102248.47;4995918;28;20039;-54
2022/10/12 11:04:16;;;;;;;18.30;6.90;;;;;;;33.53;31.71;102243.50;5003658;28;20069;-55
2022/10/12 11:06:46;;;;;;;14.48;7.25;;;;;;;33.58;31.92;102235.03;5002091;28;20051;-53
2022/10/12 11:09:18;;;;;;;16.45;7.03;;;;;;;33.23;32.90;102231.28;5000965;28;20040;-56
2022/10/12 11:11:50;;;;;;;15.30;6.38;;;;;;;33.92;32.09;102235.47;5008237;28;20033;-55
2022/10/12 11:14:23;;;;;;;13.90;6.68;;;;;;;33.93;32.18;102236.31;5008262;28;20041;-54
2022/10/12 11:16:57;;;;;;;17.73;7.03;;;;;;;33.77;31.73;102225.66;5006941;28;20035;-55
2022/10/12 11:19:35;;;;;;;18.05;6.47;;;;;;;34.01;31.88;102210.56;5009420;28;20087;-52
2022/10/12 11:22:31;;;;;;;17.55;7.07;;;;;;;33.84;32.17;102198.25;4999926;28;20022;-54